createdAt,value
2019-04-05T00:01:48.382Z,10.30
2019-04-05T00:04:18.431Z,10.30
2019-04-05T00:06:48.387Z,10.20
2019-04-05T00:09:18.373Z,10.00
2019-04-05T00:11:48.592Z,9.80
2019-04-05T00:14:18.567Z,9.80
2019-04-05T00:16:48.523Z,9.50
2019-04-05T00:19:18.499Z,9.50
2019-04-05T00:21:48.459Z,9.60
2019-04-05T00:24:18.439Z,9.60
2019-04-05T00:26:48.600Z,9.50
2019-04-05T00:29:18.583Z,9.50
2019-04-05T00:31:48.535Z,9.50
2019-04-05T00:34:18.506Z,9.50
2019-04-05T00:36:48.462Z,9.30
2019-04-05T00:39:18.515Z,9.20
2019-04-05T00:41:48.471Z,9.10
2019-04-05T00:44:18.452Z,9.20
2019-04-05T00:46:48.414Z,9.10
2019-04-05T00:49:18.473Z,9.10
2019-04-05T00:51:48.428Z,9.20
2019-04-05T00:54:18.483Z,9.00
2019-04-05T00:56:48.439Z,9.10
2019-04-05T00:59:18.419Z,9.10
2019-04-05T01:01:48.377Z,9.00
2019-04-05T01:04:18.351Z,9.10
2019-04-05T01:06:48.306Z,9.20
2019-04-05T01:09:18.300Z,9.20
2019-04-05T01:11:48.494Z,9.10
2019-04-05T01:14:18.917Z,9.10
2019-04-05T01:16:48.940Z,9.10
2019-04-05T01:19:20.460Z,9.20
2019-04-05T01:21:50.419Z,9.20
2019-04-05T01:24:20.865Z,9.10
2019-04-05T01:26:51.463Z,9.10
2019-04-05T01:29:21.574Z,9.20
2019-04-05T01:31:52.503Z,9.20
2019-04-05T01:34:23.450Z,9.20
2019-04-05T01:36:53.418Z,9.20
2019-04-05T01:39:23.395Z,9.20
2019-04-05T01:41:53.351Z,9.10
2019-04-05T01:44:23.391Z,9.20
2019-04-05T01:46:54.593Z,9.20
2019-04-05T01:49:24.567Z,9.20
2019-04-05T01:51:54.794Z,9.30
2019-04-05T01:54:24.847Z,9.30
2019-04-05T01:56:54.795Z,9.30
2019-04-05T01:59:24.827Z,9.30
2019-04-05T02:01:54.807Z,9.30
2019-04-05T02:04:24.858Z,9.30
2019-04-05T02:06:54.874Z,9.40
2019-04-05T02:09:24.891Z,9.40
2019-04-05T02:11:55.020Z,9.40
2019-04-05T02:14:25.068Z,9.40
2019-04-05T02:16:55.019Z,9.30
2019-04-05T02:19:25.066Z,9.20
2019-04-05T02:21:55.023Z,9.20
2019-04-05T02:24:25.068Z,9.20
2019-04-05T02:26:55.024Z,9.30
2019-04-05T02:29:25.005Z,9.30
2019-04-05T02:31:54.963Z,9.40
2019-04-05T02:34:24.940Z,9.40
2019-04-05T02:36:54.895Z,9.40
2019-04-05T02:39:24.871Z,9.40
2019-04-05T02:41:56.867Z,9.40
2019-04-05T02:44:27.490Z,9.40
2019-04-05T02:46:57.586Z,9.40
2019-04-05T02:49:31.010Z,9.40
2019-04-05T02:52:02.743Z,9.40
2019-04-05T02:54:34.242Z,9.40
2019-04-05T02:57:04.936Z,9.40
2019-04-05T02:59:35.249Z,9.40
2019-04-05T03:02:05.474Z,9.40
2019-04-05T03:04:36.001Z,9.40
2019-04-05T03:07:06.392Z,9.30
2019-04-05T03:09:37.008Z,9.30
2019-04-05T03:12:07.513Z,9.30
2019-04-05T03:14:38.430Z,9.30
2019-04-05T03:17:09.831Z,9.30
2019-04-05T03:19:41.195Z,9.30
2019-04-05T03:22:13.599Z,9.30
2019-04-05T03:24:46.238Z,9.30
2019-04-05T03:27:19.273Z,9.20
2019-04-05T03:29:50.015Z,9.20
2019-04-05T03:32:20.035Z,9.10
2019-04-05T03:34:50.383Z,9.10
2019-04-05T03:37:20.975Z,9.20
2019-04-05T03:39:51.500Z,9.10
2019-04-05T03:42:21.859Z,9.10
2019-04-05T03:44:52.216Z,9.10
2019-04-05T03:47:22.126Z,9.10
2019-04-05T03:49:52.354Z,9.10
2019-04-05T03:52:22.657Z,9.10
2019-04-05T03:54:53.195Z,9.00
2019-04-05T03:57:23.781Z,9.10
2019-04-05T03:59:53.826Z,9.00
2019-04-05T04:02:23.976Z,8.90
2019-04-05T04:04:54.711Z,8.90
2019-04-05T04:07:24.671Z,8.90
2019-04-05T04:09:54.809Z,8.90
2019-04-05T04:12:25.094Z,8.90
2019-04-05T04:14:58.735Z,8.90
2019-04-05T04:17:29.120Z,9.00
2019-04-05T04:19:59.158Z,8.90
2019-04-05T04:22:30.062Z,8.90
2019-04-05T04:25:00.361Z,8.90
2019-04-05T04:27:30.973Z,8.90
2019-04-05T04:30:01.800Z,8.90
2019-04-05T04:32:31.817Z,8.90
2019-04-05T04:35:02.650Z,8.90
2019-04-05T04:37:33.043Z,8.90
2019-04-05T04:40:04.161Z,9.00
2019-04-05T04:42:34.349Z,9.00
2019-04-05T04:45:11.996Z,8.90
2019-04-05T04:47:37.401Z,9.00
2019-04-05T04:50:08.287Z,9.00
2019-04-05T04:52:38.582Z,8.90
2019-04-05T04:55:09.696Z,8.90
2019-04-05T04:57:39.910Z,8.90
2019-04-05T05:00:10.222Z,9.00
2019-04-05T05:02:40.813Z,9.00
2019-04-05T05:05:12.306Z,9.00
2019-04-05T05:07:42.614Z,8.90
2019-04-05T05:10:12.838Z,8.90
2019-04-05T05:13:02.146Z,8.90
2019-04-05T05:15:32.396Z,9.00
2019-04-05T05:18:02.823Z,8.90
2019-04-05T05:20:32.935Z,8.90
2019-04-05T05:23:03.059Z,8.90
2019-04-05T05:25:34.069Z,8.90
2019-04-05T05:28:04.258Z,9.00
2019-04-05T05:30:34.681Z,9.00
2019-04-05T05:33:04.966Z,9.00
2019-04-05T05:35:35.114Z,9.00
2019-04-05T05:38:05.230Z,9.00
2019-04-05T05:40:35.672Z,9.10
2019-04-05T05:43:05.698Z,9.00
2019-04-05T05:45:35.666Z,9.00
2019-04-05T05:48:05.763Z,9.00
2019-04-05T05:50:36.375Z,9.00
2019-04-05T05:53:06.394Z,9.00
2019-04-05T05:55:36.450Z,9.00
2019-04-05T05:58:06.393Z,9.00
2019-04-05T06:00:36.366Z,9.00
2019-04-05T06:03:06.537Z,9.00
2019-04-05T06:05:37.198Z,9.20
2019-04-05T06:08:07.239Z,9.10
2019-04-05T06:10:37.201Z,9.20
2019-04-05T06:13:07.852Z,9.20
2019-04-05T06:15:37.839Z,9.20
2019-04-05T06:18:09.862Z,9.20
2019-04-05T06:20:39.400Z,9.20
2019-04-05T06:23:09.354Z,9.30
2019-04-05T06:25:39.381Z,9.20
2019-04-05T06:28:09.354Z,9.30
2019-04-05T06:30:39.309Z,9.30
2019-04-05T06:33:09.282Z,9.30
2019-04-05T06:35:39.236Z,9.20
2019-04-05T06:38:09.214Z,9.30
2019-04-05T06:40:41.016Z,9.30
2019-04-05T06:43:10.754Z,9.40
2019-04-05T06:45:40.748Z,9.40
2019-04-05T06:48:18.904Z,9.40
2019-04-05T06:50:42.257Z,9.50
2019-04-05T06:53:12.234Z,9.50
2019-04-05T06:55:42.177Z,9.50
2019-04-05T06:58:19.617Z,9.60
2019-04-05T07:00:56.440Z,9.60
2019-04-05T07:03:15.411Z,9.60
2019-04-05T07:05:45.507Z,9.60
2019-04-05T07:08:18.202Z,9.70
2019-04-05T07:10:47.055Z,9.80
2019-04-05T07:13:17.027Z,9.90
2019-04-05T07:15:46.977Z,9.80
2019-04-05T07:18:16.962Z,9.80
2019-04-05T07:20:46.895Z,9.80
2019-04-05T07:23:16.875Z,9.90
2019-04-05T07:25:46.826Z,10.00
2019-04-05T07:28:16.926Z,10.10
2019-04-05T07:30:46.925Z,10.10
2019-04-05T07:33:16.872Z,10.10
2019-04-05T07:35:46.830Z,10.00
2019-04-05T07:38:16.816Z,10.10
2019-04-05T07:40:46.782Z,10.30
2019-04-05T07:43:16.786Z,10.30
2019-04-05T07:45:46.747Z,10.30
2019-04-05T07:48:16.726Z,10.30
2019-04-05T07:50:46.687Z,10.40
2019-04-05T07:53:16.668Z,10.50
2019-04-05T07:55:46.621Z,10.50
2019-04-05T07:58:16.601Z,10.50
2019-04-05T08:00:52.403Z,10.60
2019-04-05T08:03:23.330Z,10.60
2019-04-05T08:05:54.526Z,10.60
2019-04-05T08:08:30.175Z,10.70
2019-04-05T08:11:00.378Z,10.80
2019-04-05T08:13:31.551Z,10.80
2019-04-05T08:16:01.739Z,10.90
2019-04-05T08:18:31.793Z,11.00
2019-04-05T08:21:01.768Z,11.10
2019-04-05T08:23:31.780Z,11.20
2019-04-05T08:26:01.750Z,11.30
2019-04-05T08:28:32.817Z,11.40
2019-04-05T08:31:02.782Z,11.50
2019-04-05T08:33:32.868Z,11.30
2019-04-05T08:36:03.866Z,11.40
2019-04-05T08:38:33.988Z,11.40
2019-04-05T08:41:03.950Z,11.40
2019-04-05T08:43:33.955Z,11.50
2019-04-05T08:46:03.934Z,11.60
2019-04-05T08:48:33.919Z,11.50
2019-04-05T08:51:04.035Z,11.40
2019-04-05T08:53:34.023Z,11.50
2019-04-05T08:56:04.053Z,11.60
2019-04-05T08:58:34.040Z,11.50
2019-04-05T09:01:04.352Z,11.50
2019-04-05T09:03:34.335Z,11.60
2019-04-05T09:06:04.397Z,11.70
2019-04-05T09:08:34.438Z,11.80
2019-04-05T09:11:04.399Z,11.90
2019-04-05T09:13:34.378Z,12.00
2019-04-05T09:16:04.338Z,12.00
2019-04-05T09:18:34.319Z,12.00
2019-04-05T09:21:04.415Z,12.00
2019-04-05T09:23:35.462Z,12.00
2019-04-05T09:26:05.595Z,12.10
2019-04-05T09:28:35.580Z,12.20
2019-04-05T09:31:05.534Z,12.20
2019-04-05T09:33:35.522Z,12.30
2019-04-05T09:36:05.716Z,12.30
2019-04-05T09:38:35.694Z,12.40
2019-04-05T09:41:05.722Z,12.50
2019-04-05T09:43:35.710Z,12.60
2019-04-05T09:46:05.837Z,12.80
2019-04-05T09:48:35.813Z,12.70
2019-04-05T09:51:07.119Z,12.90
2019-04-05T09:53:37.323Z,13.10
2019-04-05T09:56:07.307Z,13.70
2019-04-05T09:58:37.666Z,14.00
2019-04-05T10:01:07.756Z,14.20
2019-04-05T10:03:37.742Z,14.20
2019-04-05T10:06:07.879Z,14.10
2019-04-05T10:08:37.937Z,14.00
2019-04-05T10:11:07.898Z,14.00
2019-04-05T10:13:37.882Z,14.00
2019-04-05T10:16:07.837Z,13.90
2019-04-05T10:18:37.828Z,13.80
2019-04-05T10:21:07.782Z,13.80
2019-04-05T10:23:37.839Z,13.70
2019-04-05T10:26:07.938Z,13.70
2019-04-05T10:28:37.983Z,13.70
2019-04-05T10:31:07.966Z,13.80
2019-04-05T10:33:38.021Z,13.80
2019-04-05T10:36:07.979Z,13.90
2019-04-05T10:38:38.046Z,14.10
2019-04-05T10:41:08.178Z,14.20
2019-04-05T10:43:38.187Z,14.30
2019-04-05T10:46:08.179Z,14.30
2019-04-05T10:48:38.158Z,14.40
2019-04-05T10:51:08.130Z,14.60
2019-04-05T10:53:38.176Z,14.60
2019-04-05T10:56:08.083Z,14.60
2019-04-05T10:58:38.137Z,14.60
2019-04-05T11:01:08.182Z,14.60
2019-04-05T11:03:38.162Z,14.70
2019-04-05T11:06:08.123Z,14.80
2019-04-05T11:08:38.097Z,14.90
2019-04-05T11:11:08.058Z,15.10
2019-04-05T11:13:38.114Z,15.20
2019-04-05T11:16:08.075Z,15.30
2019-04-05T11:18:38.065Z,15.60
2019-04-05T11:21:08.019Z,15.70
2019-04-05T11:23:38.004Z,15.80
2019-04-05T11:26:07.958Z,15.90
2019-04-05T11:28:37.934Z,15.90
2019-04-05T11:31:07.968Z,16.20
2019-04-05T11:33:37.938Z,16.30
2019-04-05T11:36:08.434Z,16.40
2019-04-05T11:38:38.883Z,16.50
2019-04-05T11:41:08.970Z,16.50
2019-04-05T11:43:40.395Z,16.80
2019-04-05T11:46:10.410Z,17.00
2019-04-05T11:48:41.335Z,17.10
2019-04-05T11:51:12.590Z,17.20
2019-04-05T11:53:42.570Z,17.30
2019-04-05T11:56:14.775Z,17.50
2019-04-05T11:58:48.531Z,17.80
2019-04-05T12:01:23.137Z,17.80
2019-04-05T12:03:51.850Z,17.90
2019-04-05T12:06:21.806Z,18.20
2019-04-05T12:08:51.801Z,17.80
2019-04-05T12:11:21.799Z,17.80
2019-04-05T12:13:51.775Z,17.80
2019-04-05T12:16:21.723Z,17.80
2019-04-05T12:18:51.703Z,17.90
2019-04-05T12:21:21.662Z,17.90
2019-04-05T12:23:51.635Z,17.80
2019-04-05T12:26:21.586Z,18.10
2019-04-05T12:28:51.563Z,18.20
2019-04-05T12:31:22.290Z,18.30
2019-04-05T12:33:52.520Z,18.40
2019-04-05T12:36:22.752Z,18.60
2019-04-05T12:38:54.347Z,18.60
2019-04-05T12:41:24.418Z,18.50
2019-04-05T12:43:54.415Z,18.40
2019-04-05T12:46:24.374Z,18.20
2019-04-05T12:48:54.357Z,18.30
2019-04-05T12:51:24.315Z,18.30
2019-04-05T12:53:56.480Z,18.00
2019-04-05T12:56:26.526Z,17.80
2019-04-05T12:58:57.158Z,17.80
2019-04-05T13:01:27.110Z,17.90
2019-04-05T13:03:58.666Z,18.00
2019-04-05T13:06:28.844Z,18.00
2019-04-05T13:08:58.907Z,18.10
2019-04-05T13:11:28.850Z,18.20
2019-04-05T13:13:58.839Z,18.40
2019-04-05T13:16:29.486Z,18.60
2019-04-05T13:19:00.867Z,18.50
2019-04-05T13:21:33.037Z,18.40
2019-04-05T13:24:04.248Z,18.80
2019-04-05T13:26:36.657Z,19.10
2019-04-05T13:29:05.878Z,19.40
2019-04-05T13:31:35.868Z,19.50
2019-04-05T13:34:06.204Z,19.70
2019-04-05T13:36:36.299Z,19.70
2019-04-05T13:39:07.587Z,19.80
2019-04-05T13:41:37.613Z,20.10
2019-04-05T13:44:07.560Z,20.10
2019-04-05T13:46:39.043Z,19.90
2019-04-05T13:49:10.995Z,19.70
2019-04-05T13:51:42.124Z,19.50
2019-04-05T13:54:12.746Z,19.40
2019-04-05T13:56:42.728Z,19.50
2019-04-05T13:59:12.746Z,19.50
2019-04-05T14:01:42.796Z,19.50
2019-04-05T14:04:12.778Z,19.30
2019-04-05T14:06:42.816Z,19.10
2019-04-05T14:09:15.529Z,19.10
2019-04-05T14:11:44.908Z,19.10
2019-04-05T14:14:14.865Z,19.40
2019-04-05T14:16:44.843Z,19.60
2019-04-05T14:19:18.385Z,19.80
2019-04-05T14:21:47.817Z,20.20
2019-04-05T14:24:17.901Z,20.70
2019-04-05T14:26:47.878Z,20.70
2019-04-05T14:29:17.922Z,20.90
2019-04-05T14:31:47.947Z,21.20
2019-04-05T14:34:17.842Z,21.30
2019-04-05T14:36:47.821Z,21.10
2019-04-05T14:39:18.742Z,21.40
2019-04-05T14:41:48.713Z,21.40
2019-04-05T14:44:18.680Z,21.00
2019-04-05T14:46:48.645Z,20.70
2019-04-05T14:49:18.603Z,20.50
2019-04-05T14:51:55.040Z,20.20
2019-04-05T14:54:20.227Z,20.00
2019-04-05T14:56:50.220Z,19.90
2019-04-05T14:59:20.141Z,19.80
2019-04-05T15:01:50.113Z,19.90
2019-04-05T15:04:20.139Z,19.70
2019-04-05T15:06:50.611Z,19.80
2019-04-05T15:09:23.688Z,20.00
2019-04-05T15:11:53.462Z,20.50
2019-04-05T15:14:23.414Z,20.80
2019-04-05T15:16:53.454Z,21.00
2019-04-05T15:19:23.442Z,21.10
2019-04-05T15:22:04.847Z,21.10
2019-04-05T15:24:25.022Z,21.20
2019-04-05T15:26:55.018Z,21.30
2019-04-05T15:29:26.115Z,21.50
2019-04-05T15:31:57.018Z,21.50
2019-04-05T15:34:28.480Z,21.60
2019-04-05T15:36:59.377Z,21.60
2019-04-05T15:39:30.791Z,21.50
2019-04-05T15:42:01.330Z,21.50
2019-04-05T15:44:31.287Z,21.50
2019-04-05T15:47:01.346Z,21.40
2019-04-05T15:49:31.302Z,21.60
2019-04-05T15:52:01.286Z,21.50
2019-04-05T15:54:33.205Z,21.60
2019-04-05T15:57:03.757Z,21.50
2019-04-05T15:59:34.413Z,21.40
2019-04-05T16:02:04.452Z,21.20
2019-04-05T16:04:35.513Z,21.30
2019-04-05T16:07:05.587Z,21.20
2019-04-05T16:09:35.578Z,21.00
2019-04-05T16:12:05.962Z,20.90
2019-04-05T16:14:36.022Z,20.90
2019-04-05T16:17:06.265Z,21.10
2019-04-05T16:19:36.258Z,21.10
2019-04-05T16:22:06.315Z,20.90
2019-04-05T16:24:36.372Z,20.50
2019-04-05T16:27:06.310Z,20.40
2019-04-05T16:29:36.262Z,20.30
2019-04-05T16:32:06.237Z,20.20
2019-04-05T16:34:36.187Z,20.20
2019-04-05T16:37:06.339Z,20.30
2019-04-05T16:39:36.300Z,20.10
2019-04-05T16:42:06.271Z,20.00
2019-04-05T16:44:36.394Z,19.80
2019-04-05T16:47:06.372Z,19.50
2019-04-05T16:49:36.318Z,19.40
2019-04-05T16:52:06.362Z,19.10
2019-04-05T16:54:36.313Z,19.00
2019-04-05T16:57:06.359Z,18.90
2019-04-05T16:59:36.322Z,18.70
2019-04-05T17:02:06.298Z,18.50
2019-04-05T17:04:36.844Z,18.40
2019-04-05T17:07:06.878Z,18.30
2019-04-05T17:09:36.831Z,18.30
2019-04-05T17:12:06.803Z,18.10
2019-04-05T17:14:36.966Z,18.00
2019-04-05T17:17:07.294Z,18.00
2019-04-05T17:19:37.922Z,17.90
2019-04-05T17:22:08.276Z,17.80
2019-04-05T17:24:39.010Z,17.70
2019-04-05T17:27:08.990Z,17.70
2019-04-05T17:29:40.067Z,17.60
2019-04-05T17:32:10.374Z,17.50
2019-04-05T17:34:41.117Z,17.30
2019-04-05T17:37:11.162Z,17.30
2019-04-05T17:39:41.258Z,17.30
2019-04-05T17:42:11.443Z,17.20
2019-04-05T17:44:41.710Z,17.20
2019-04-05T17:47:11.725Z,17.10
2019-04-05T17:49:42.219Z,17.00
2019-04-05T17:52:12.206Z,17.00
2019-04-05T17:54:42.445Z,16.90
2019-04-05T17:57:12.674Z,16.90
2019-04-05T17:59:43.621Z,16.90
2019-04-05T18:02:13.849Z,16.90
2019-04-05T18:04:43.841Z,16.80
2019-04-05T18:07:14.027Z,16.60
2019-04-05T18:09:43.942Z,16.60
2019-04-05T18:12:14.004Z,16.60
2019-04-05T18:14:44.222Z,16.40
2019-04-05T18:17:14.475Z,16.30
2019-04-05T18:19:45.518Z,16.30
2019-04-05T18:22:15.463Z,16.10
2019-04-05T18:24:45.663Z,16.00
2019-04-05T18:27:15.630Z,16.00
2019-04-05T18:29:45.577Z,15.90
2019-04-05T18:32:15.679Z,15.80
2019-04-05T18:34:45.728Z,15.70
2019-04-05T18:37:15.678Z,15.70
2019-04-05T18:39:45.658Z,15.60
2019-04-05T18:42:15.842Z,15.50
2019-04-05T18:44:46.026Z,15.40
2019-04-05T18:47:16.123Z,15.30
2019-04-05T18:49:46.144Z,15.30
2019-04-05T18:52:16.106Z,15.20
2019-04-05T18:54:46.057Z,15.20
2019-04-05T18:57:16.199Z,15.10
2019-04-05T18:59:46.239Z,15.00
2019-04-05T19:02:16.223Z,15.00
2019-04-05T19:04:46.170Z,14.90
2019-04-05T19:07:16.152Z,14.80
2019-04-05T19:09:46.126Z,14.70
2019-04-05T19:12:16.149Z,14.60
2019-04-05T19:14:46.109Z,14.50
2019-04-05T19:17:23.702Z,14.50
2019-04-05T19:19:47.650Z,14.50
2019-04-05T19:22:17.622Z,14.30
2019-04-05T19:24:47.575Z,14.30
2019-04-05T19:27:17.556Z,14.20
2019-04-05T19:29:47.502Z,14.20
2019-04-05T19:49:58.807Z,13.80
2019-04-05T19:52:28.798Z,13.70
2019-04-05T19:54:58.753Z,13.60
2019-04-05T19:57:28.730Z,13.60
2019-04-05T19:59:58.682Z,13.50
2019-04-05T20:02:28.653Z,13.50
2019-04-05T20:04:58.607Z,13.50
2019-04-05T20:07:28.577Z,13.40
2019-04-05T20:09:58.537Z,13.40
2019-04-05T20:12:28.507Z,13.40
2019-04-05T20:14:58.523Z,13.30
2019-04-05T20:17:28.575Z,13.20
2019-04-05T20:19:58.527Z,13.20
2019-04-05T20:22:28.501Z,13.10
2019-04-05T20:24:58.527Z,13.00
2019-04-05T20:27:28.506Z,13.00
2019-04-05T20:29:58.462Z,13.00
2019-04-05T20:32:28.441Z,12.80
2019-04-05T20:34:58.463Z,12.80
2019-04-05T20:37:28.462Z,12.70
2019-04-05T20:39:58.456Z,12.70
2019-04-05T20:42:28.440Z,12.50
2019-04-05T20:44:58.481Z,12.50
2019-04-05T20:47:28.430Z,12.40
2019-04-05T20:49:58.427Z,12.40
2019-04-05T20:52:28.514Z,12.20
2019-04-05T20:54:58.488Z,12.20
2019-04-05T20:57:28.445Z,12.10
2019-04-05T20:59:58.499Z,12.00
2019-04-05T21:02:28.454Z,11.90
2019-04-05T21:04:58.430Z,11.80
2019-04-05T21:07:28.490Z,11.70
2019-04-05T21:09:58.462Z,11.70
2019-04-05T21:12:28.423Z,11.50
2019-04-05T21:14:58.405Z,11.50
2019-04-05T21:17:28.362Z,11.50
2019-04-05T21:19:58.334Z,11.50
2019-04-05T21:22:28.298Z,11.40
2019-04-05T21:24:59.450Z,11.30
2019-04-05T21:27:29.576Z,11.20
2019-04-05T21:29:59.547Z,11.10
2019-04-05T21:32:29.507Z,11.10
2019-04-05T21:34:59.482Z,11.00
2019-04-05T21:37:29.442Z,11.00
2019-04-05T21:39:59.413Z,10.90
2019-04-05T21:42:29.371Z,10.80
2019-04-05T21:44:59.509Z,10.70
2019-04-05T21:47:29.533Z,10.70
2019-04-05T21:49:59.506Z,10.60
2019-04-05T21:52:29.459Z,10.60
2019-04-05T21:54:59.435Z,10.50
2019-04-05T21:57:29.386Z,10.40
2019-04-05T21:59:59.370Z,10.40
2019-04-05T22:02:30.557Z,10.30
2019-04-05T22:05:01.359Z,10.20
2019-04-05T22:07:32.462Z,10.20
2019-04-05T22:10:02.442Z,10.10
2019-04-05T22:12:32.566Z,10.00
2019-04-05T22:15:02.612Z,9.90
2019-04-05T22:17:32.547Z,9.80
2019-04-05T22:20:02.514Z,9.80
2019-04-05T22:22:32.465Z,9.80
2019-04-05T22:25:02.451Z,9.80
2019-04-05T22:27:32.566Z,9.80
2019-04-05T22:30:02.534Z,9.70
2019-04-05T22:32:32.481Z,9.70
2019-04-05T22:35:02.441Z,9.60
2019-04-05T22:37:32.410Z,9.60
2019-04-05T22:40:02.378Z,9.50
2019-04-05T22:42:32.461Z,9.40
2019-04-05T22:45:03.807Z,9.40
2019-04-05T22:47:35.290Z,9.30
2019-04-05T22:50:08.806Z,9.40
2019-04-05T22:52:38.750Z,9.30
2019-04-05T22:55:11.474Z,9.30
2019-04-05T22:57:40.291Z,9.30
2019-04-05T23:00:10.602Z,9.20
2019-04-05T23:02:42.145Z,9.30
2019-04-05T23:05:12.181Z,9.30
2019-04-05T23:07:42.155Z,9.30
2019-04-05T23:10:12.575Z,9.30
2019-04-05T23:12:42.489Z,9.20
2019-04-05T23:15:12.694Z,9.20
2019-04-05T23:17:42.637Z,9.20
2019-04-05T23:20:13.007Z,9.20
2019-04-05T23:22:42.956Z,9.20
2019-04-05T23:25:21.525Z,9.20
2019-04-05T23:27:44.741Z,9.20
2019-04-05T23:30:14.953Z,9.10
2019-04-05T23:32:44.898Z,9.00
2019-04-05T23:35:14.933Z,9.00
2019-04-05T23:37:44.921Z,9.00
2019-04-05T23:40:14.979Z,9.00
2019-04-05T23:42:44.929Z,8.90
2019-04-05T23:45:14.970Z,8.90
2019-04-05T23:47:44.910Z,8.80
2019-04-05T23:50:14.942Z,8.80
2019-04-05T23:52:44.885Z,8.70
2019-04-05T23:55:14.855Z,8.70
2019-04-05T23:57:44.802Z,8.60
